Time;durP1;ratioP1;P1;durP2;ratioP2;P2;SDS_P1;SDS_P2;PMS_P1;PMS_P2;Temp;Humidity;BMP_temperature;BMP_pressure;BME280_temperature;BME280_humidity;BME280_pressure;Samples;Min_cycle;Max_cycle;Signal;HPM_P1;HPM_P2
2022/02/06 00:00:52;;;;;;;6.05;0.90;;;6.70;99.90;;;;;;6152838;23;20013;-83
2022/02/06 00:03:19;;;;;;;6.43;0.68;;;6.70;99.90;;;;;;6129099;23;20016;-83
2022/02/06 00:05:47;;;;;;;7.80;0.68;;;6.70;99.90;;;;;;6127615;23;20008;-82
2022/02/06 00:08:13;;;;;;;4.50;0.50;;;6.70;99.90;;;;;;6153191;23;20013;-85
2022/02/06 00:10:39;;;;;;;4.63;0.60;;;6.70;99.90;;;;;;6152798;23;20013;-83
2022/02/06 00:13:05;;;;;;;6.85;0.70;;;6.70;99.90;;;;;;6129319;23;20005;-84
2022/02/06 00:15:31;;;;;;;7.60;0.77;;;6.70;99.90;;;;;;6128364;23;20335;-84
2022/02/06 00:17:57;;;;;;;4.10;0.95;;;6.70;99.90;;;;;;6127912;23;20013;-83
2022/02/06 00:20:29;;;;;;;4.72;0.70;;;6.70;99.90;;;;;;6128522;23;20434;-83
2022/02/06 00:22:58;;;;;;;5.97;0.70;;;6.70;99.90;;;;;;6153111;23;20465;-85
2022/02/06 00:25:53;;;;;;;5.45;0.60;;;6.70;99.90;;;;;;6128388;23;20064;-83
2022/02/06 00:28:41;;;;;;;5.10;0.60;;;6.70;99.90;;;;;;6153393;23;20331;-84
2022/02/06 00:34:44;;;;;;;6.00;0.60;;;6.70;99.90;;;;;;6068223;23;20057;-86
2022/02/06 00:39:47;;;;;;;5.20;0.77;;;6.80;99.90;;;;;;6069138;23;20098;-85
2022/02/06 00:42:13;;;;;;;10.27;1.02;;;6.80;99.90;;;;;;6093431;23;20038;-85
2022/02/06 00:44:39;;;;;;;3.35;0.60;;;6.80;99.90;;;;;;6069148;23;20066;-85
2022/02/06 00:47:05;;;;;;;6.22;0.80;;;6.80;99.90;;;;;;6093053;23;20010;-86
2022/02/06 00:49:31;;;;;;;5.25;0.70;;;6.80;99.90;;;;;;6068366;23;20081;-86
2022/02/06 00:52:13;;;;;;;4.90;0.70;;;6.80;99.90;;;;;;6093096;23;20344;-86
2022/02/06 00:54:39;;;;;;;4.38;0.60;;;6.80;99.90;;;;;;6068811;23;20018;-86
2022/02/06 00:57:06;;;;;;;7.80;1.23;;;6.80;99.90;;;;;;6045337;23;20089;-86
2022/02/06 00:59:31;;;;;;;8.60;0.90;;;6.90;99.90;;;;;;6093396;23;20046;-85
2022/02/06 01:01:57;;;;;;;4.10;0.60;;;6.90;99.90;;;;;;6068371;23;20482;-85
2022/02/06 01:04:23;;;;;;;5.43;1.00;;;6.80;99.90;;;;;;6068753;23;20010;-86
2022/02/06 01:06:48;;;;;;;4.68;0.90;;;6.90;99.90;;;;;;6092537;23;20362;-85
2022/02/06 01:09:15;;;;;;;10.43;0.80;;;6.90;99.90;;;;;;6150900;23;20021;-85
2022/02/06 01:11:41;;;;;;;6.38;1.10;;;6.90;99.90;;;;;;6128282;23;20017;-82
2022/02/06 01:17:12;;;;;;;5.72;1.23;;;7.00;99.90;;;;;;6118861;23;20040;-85
2022/02/06 01:19:49;;;;;;;6.25;1.20;;;7.00;99.90;;;;;;6153020;23;20010;-87
2022/02/06 01:22:21;;;;;;;6.30;1.00;;;7.00;99.90;;;;;;6153575;23;20017;-86
2022/02/06 01:25:02;;;;;;;6.68;0.70;;;7.00;99.90;;;;;;6153480;23;20367;-88
2022/02/06 01:27:39;;;;;;;7.63;0.90;;;7.00;99.90;;;;;;6128328;23;20013;-87
2022/02/06 01:30:45;;;;;;;12.65;1.48;;;7.00;99.90;;;;;;6128713;23;20008;-86
2022/02/06 01:33:04;;;;;;;7.40;1.30;;;7.00;99.90;;;;;;6147703;23;20032;-84
2022/02/06 01:35:38;;;;;;;7.63;1.30;;;7.00;99.90;;;;;;6151846;23;20013;-84
2022/02/06 01:41:12;;;;;;;5.25;0.70;;;7.00;99.90;;;;;;6151946;23;20260;-85
2022/02/06 01:43:53;;;;;;;6.00;0.57;;;7.00;99.90;;;;;;6127909;23;20012;-84
2022/02/06 02:02:50;;;;;;;4.65;0.60;;;7.10;99.90;;;;;;6153446;23;20056;-83
2022/02/06 02:13:27;;;;;;;3.88;0.50;;;7.10;99.90;;;;;;6128088;23;20005;-82
2022/02/06 02:24:22;;;;;;;3.65;0.63;;;7.20;99.90;;;;;;6139850;23;20021;-85
2022/02/06 02:26:57;;;;;;;3.13;0.43;;;7.20;99.90;;;;;;6153243;23;20060;-83
2022/02/06 02:31:59;;;;;;;7.93;0.68;;;7.20;99.90;;;;;;6153019;23;20005;-84
2022/02/06 02:48:03;;;;;;;4.03;0.70;;;7.20;99.90;;;;;;6153755;23;20461;-84
2022/02/06 02:50:32;;;;;;;4.22;0.45;;;7.10;99.90;;;;;;6127007;23;20308;-85
2022/02/06 02:53:24;;;;;;;7.18;0.50;;;7.20;99.90;;;;;;6127380;23;20327;-81
2022/02/06 02:56:07;;;;;;;1.70;0.50;;;7.20;99.90;;;;;;6127048;23;20023;-85
2022/02/06 03:01:18;;;;;;;4.78;0.55;;;7.10;99.90;;;;;;6152506;23;20501;-85
2022/02/06 03:03:44;;;;;;;3.92;0.50;;;7.20;99.90;;;;;;6127207;23;20001;-83
2022/02/06 03:06:09;;;;;;;6.28;0.68;;;7.10;99.90;;;;;;6127656;23;20101;-87
2022/02/06 03:08:37;;;;;;;2.15;0.65;;;7.20;99.90;;;;;;6152206;23;20065;-84
2022/02/06 03:11:07;;;;;;;4.18;0.60;;;7.20;99.90;;;;;;6151825;23;20039;-81
2022/02/06 03:13:40;;;;;;;3.30;0.82;;;7.20;99.90;;;;;;6126757;23;20005;-85
2022/02/06 03:18:46;;;;;;;6.55;0.60;;;7.20;99.90;;;;;;6151407;23;20088;-85
2022/02/06 03:21:18;;;;;;;4.03;0.55;;;7.20;99.90;;;;;;6127213;23;20018;-85
2022/02/06 03:23:52;;;;;;;5.22;0.52;;;7.20;99.90;;;;;;6128713;23;20069;-85
2022/02/06 03:26:19;;;;;;;3.50;0.50;;;7.20;99.90;;;;;;6129118;23;20442;-85
2022/02/06 03:28:45;;;;;;;5.10;0.60;;;7.20;99.90;;;;;;6104748;23;20009;-83
2022/02/06 03:31:11;;;;;;;3.70;0.50;;;7.20;99.90;;;;;;6128845;23;20021;-84
2022/02/06 03:33:37;;;;;;;4.65;0.80;;;7.20;99.90;;;;;;6129199;23;20009;-83
2022/02/06 03:36:03;;;;;;;3.20;0.63;;;7.20;99.90;;;;;;6129377;23;20092;-84
2022/02/06 03:38:29;;;;;;;3.45;0.50;;;7.20;99.90;;;;;;6128407;23;20013;-85
2022/02/06 03:41:00;;;;;;;4.95;0.50;;;7.20;99.90;;;;;;6129097;23;20083;-84
2022/02/06 03:43:41;;;;;;;3.88;0.40;;;7.20;99.90;;;;;;6153317;23;20394;-84
2022/02/06 03:46:14;;;;;;;2.47;0.50;;;7.20;99.90;;;;;;6153693;23;20048;-83
2022/02/06 03:51:17;;;;;;;2.03;0.40;;;7.10;99.90;;;;;;6153647;23;20006;-84
2022/02/06 03:53:44;;;;;;;3.10;0.40;;;7.10;99.90;;;;;;6128206;23;20044;-83
2022/02/06 03:56:10;;;;;;;4.45;0.60;;;7.10;99.90;;;;;;6128871;23;20228;-84
2022/02/06 03:58:36;;;;;;;5.00;0.57;;;7.10;99.90;;;;;;6153309;23;20007;-85
2022/02/06 04:01:02;;;;;;;3.05;0.50;;;7.10;99.90;;;;;;6128708;23;20151;-83
2022/02/06 04:03:29;;;;;;;3.95;0.40;;;7.10;99.90;;;;;;6128486;23;20032;-83
2022/02/06 04:05:55;;;;;;;1.80;0.40;;;7.10;99.90;;;;;;6128054;23;20009;-83
2022/02/06 04:08:20;;;;;;;3.45;0.38;;;7.10;99.90;;;;;;6129065;23;20489;-83
2022/02/06 04:10:50;;;;;;;3.63;0.50;;;7.10;99.90;;;;;;6152583;23;20331;-84
2022/02/06 04:13:20;;;;;;;4.32;0.85;;;7.10;99.90;;;;;;6152941;23;20574;-83
2022/02/06 04:15:48;;;;;;;;;;;7.10;99.90;;;;;;6128680;23;20040;-83
2022/02/06 04:18:19;;;;;;;4.00;0.55;;;7.10;99.90;;;;;;6128728;23;19994;-83
2022/02/06 04:20:44;;;;;;;2.03;0.40;;;7.10;99.90;;;;;;6154272;23;20017;-83
2022/02/06 04:23:10;;;;;;;3.47;0.40;;;7.10;99.90;;;;;;6128024;23;20018;-83
2022/02/06 04:25:36;;;;;;;2.75;0.40;;;7.10;99.90;;;;;;6127411;23;20013;-82
2022/02/06 04:28:07;;;;;;;2.08;0.40;;;7.10;99.90;;;;;;6152716;23;20009;-82
2022/02/06 04:30:33;;;;;;;3.50;0.40;;;7.10;99.90;;;;;;6127796;23;20052;-83
2022/02/06 04:32:58;;;;;;;1.90;0.30;;;7.10;99.90;;;;;;6103962;23;20005;-82
2022/02/06 04:35:29;;;;;;;2.75;0.40;;;7.10;99.90;;;;;;6127722;23;20016;-81
2022/02/06 04:41:02;;;;;;;3.10;0.40;;;7.10;99.90;;;;;;6151298;23;20014;-83
2022/02/06 04:44:03;;;;;;;3.20;0.50;;;7.10;99.90;;;;;;6128081;23;20465;-83
2022/02/06 04:49:21;;;;;;;4.55;0.60;;;7.10;99.90;;;;;;6152690;23;20064;-83
2022/02/06 04:54:55;;;;;;;2.78;0.40;;;7.20;99.90;;;;;;6152139;23;20061;-83
2022/02/06 05:16:49;;;;;;;3.97;0.60;;;7.20;99.90;;;;;;6153206;23;20093;-85
2022/02/06 05:20:02;;;;;;;3.60;0.57;;;7.20;99.90;;;;;;6154846;23;20037;-86
2022/02/06 05:25:00;;;;;;;4.03;0.70;;;7.20;99.90;;;;;;6151753;23;20033;-86
2022/02/06 05:30:08;;;;;;;4.63;1.00;;;7.30;99.90;;;;;;6153029;23;20445;-87
2022/02/06 05:32:58;;;;;;;2.97;0.80;;;7.20;99.90;;;;;;6128445;23;20055;-81
2022/02/06 05:35:24;;;;;;;2.30;0.50;;;7.30;99.90;;;;;;6152529;23;20453;-85
2022/02/06 05:37:50;;;;;;;3.13;0.70;;;7.30;99.90;;;;;;6127809;23;20036;-85
2022/02/06 05:40:16;;;;;;;5.70;1.00;;;7.30;99.90;;;;;;6128446;23;20006;-83
2022/02/06 05:42:43;;;;;;;4.32;0.70;;;7.30;99.90;;;;;;6152203;23;20029;-83
2022/02/06 05:45:09;;;;;;;5.93;0.90;;;7.30;99.90;;;;;;6152454;23;20029;-83
2022/02/06 05:47:35;;;;;;;2.92;0.70;;;7.30;99.90;;;;;;6151952;23;20526;-85
2022/02/06 05:50:00;;;;;;;4.30;0.85;;;7.30;99.90;;;;;;6152418;23;20021;-84
2022/02/06 05:52:26;;;;;;;4.38;0.80;;;7.30;99.90;;;;;;6127310;23;20133;-84
2022/02/06 05:54:53;;;;;;;4.30;1.48;;;7.30;99.90;;;;;;6126990;23;20013;-84
2022/02/06 05:57:19;;;;;;;6.28;1.45;;;7.30;99.90;;;;;;6152537;23;20026;-85
2022/02/06 05:59:45;;;;;;;4.00;1.38;;;7.40;99.90;;;;;;6127621;23;20005;-87
2022/02/06 06:02:10;;;;;;;7.20;1.63;;;7.40;99.90;;;;;;6152550;23;20017;-85
2022/02/06 06:04:36;;;;;;;4.10;1.23;;;7.40;99.90;;;;;;6152191;23;20008;-84
2022/02/06 06:07:02;;;;;;;5.97;1.27;;;7.40;99.90;;;;;;6128347;23;20326;-86
2022/02/06 06:09:28;;;;;;;4.07;1.10;;;7.40;99.90;;;;;;6127437;23;20057;-87
2022/02/06 06:11:54;;;;;;;2.35;0.93;;;7.40;99.90;;;;;;6127662;23;20009;-85
2022/02/06 06:14:20;;;;;;;3.35;1.10;;;7.40;99.90;;;;;;6152051;23;20002;-85
2022/02/06 06:16:45;;;;;;;3.08;0.90;;;7.40;99.90;;;;;;6152254;23;20009;-85
2022/02/06 06:19:12;;;;;;;4.15;0.98;;;7.40;99.90;;;;;;6127482;23;20009;-85
2022/02/06 06:21:42;;;;;;;4.88;0.93;;;7.40;99.90;;;;;;6126964;23;20020;-85
2022/02/06 06:24:08;;;;;;;4.47;1.20;;;7.40;99.90;;;;;;6152401;23;20045;-84
2022/02/06 06:26:37;;;;;;;3.45;1.42;;;7.40;99.90;;;;;;6127113;23;20448;-86
2022/02/06 06:29:04;;;;;;;3.58;0.70;;;7.40;99.90;;;;;;6152345;23;20013;-88
2022/02/06 06:31:30;;;;;;;3.65;0.75;;;7.40;99.90;;;;;;6151999;23;20088;-84
2022/02/06 06:33:55;;;;;;;3.95;0.75;;;7.40;99.90;;;;;;6152161;23;20036;-84
2022/02/06 06:36:21;;;;;;;1.75;0.50;;;7.40;99.90;;;;;;6152292;23;20010;-84
2022/02/06 06:38:51;;;;;;;2.20;0.60;;;7.40;99.90;;;;;;6127026;23;20408;-86
2022/02/06 06:41:17;;;;;;;2.20;0.60;;;7.40;99.90;;;;;;6126851;23;20491;-84
2022/02/06 06:43:43;;;;;;;1.65;0.50;;;7.40;99.90;;;;;;6153281;23;20009;-83
2022/02/06 06:46:09;;;;;;;2.08;0.50;;;7.40;99.90;;;;;;6127391;23;20442;-85
2022/02/06 06:48:35;;;;;;;3.17;0.40;;;7.40;99.90;;;;;;6151151;23;20020;-85
2022/02/06 06:51:00;;;;;;;1.48;0.50;;;7.30;99.90;;;;;;6124472;23;20014;-83
2022/02/06 06:53:27;;;;;;;1.00;0.50;;;7.40;99.90;;;;;;6127249;23;20029;-84
2022/02/06 06:56:04;;;;;;;1.83;0.50;;;7.40;99.90;;;;;;6126503;23;20354;-84
2022/02/06 06:58:38;;;;;;;2.42;0.60;;;7.40;99.90;;;;;;6154364;23;20087;-84
2022/02/06 07:03:35;;;;;;;1.98;0.40;;;7.30;99.90;;;;;;6154651;23;20010;-86
2022/02/06 07:06:01;;;;;;;1.40;0.40;;;7.30;99.90;;;;;;6154566;23;20064;-85
2022/02/06 07:08:27;;;;;;;0.77;0.40;;;7.30;99.90;;;;;;6130406;23;20017;-83
2022/02/06 07:10:53;;;;;;;1.00;0.40;;;7.40;99.90;;;;;;6129870;23;20442;-83
2022/02/06 07:13:21;;;;;;;0.88;0.40;;;7.30;99.90;;;;;;6129800;23;20020;-83
2022/02/06 07:15:47;;;;;;;3.20;0.77;;;7.30;99.90;;;;;;6107780;23;20383;-88
2022/02/06 07:18:13;;;;;;;1.00;0.40;;;7.30;99.90;;;;;;6125410;23;20009;-86
2022/02/06 07:20:39;;;;;;;1.33;0.38;;;7.30;99.90;;;;;;6153588;23;20005;-84
2022/02/06 07:23:06;;;;;;;2.08;0.50;;;7.40;99.90;;;;;;6155178;23;20092;-84
2022/02/06 07:25:33;;;;;;;1.00;0.40;;;7.40;99.90;;;;;;6153352;23;20040;-83
2022/02/06 07:27:59;;;;;;;1.58;0.45;;;7.40;99.90;;;;;;6129647;23;20009;-85
2022/02/06 07:30:26;;;;;;;1.30;0.40;;;7.40;99.90;;;;;;6130554;23;20438;-85
2022/02/06 07:32:52;;;;;;;2.53;0.50;;;7.40;99.90;;;;;;6129567;23;20411;-87
2022/02/06 07:35:17;;;;;;;1.00;0.35;;;7.30;99.90;;;;;;6154254;23;20017;-85
2022/02/06 07:37:51;;;;;;;3.10;0.45;;;7.40;99.90;;;;;;6129517;23;20032;-84
2022/02/06 07:40:17;;;;;;;1.15;0.50;;;7.40;99.90;;;;;;6130498;23;20009;-85
2022/02/06 07:42:43;;;;;;;3.38;1.10;;;7.40;99.90;;;;;;6154251;23;20028;-83
2022/02/06 07:45:15;;;;;;;2.42;0.55;;;7.50;99.90;;;;;;6131467;23;20100;-84
2022/02/06 07:47:43;;;;;;;3.25;0.70;;;7.40;99.90;;;;;;6153572;23;20029;-83
2022/02/06 07:50:11;;;;;;;1.52;0.50;;;7.50;99.90;;;;;;6154431;23;20006;-83
2022/02/06 07:52:36;;;;;;;2.55;0.80;;;7.50;99.90;;;;;;6130358;23;20120;-85
2022/02/06 07:55:04;;;;;;;2.08;0.60;;;7.50;99.90;;;;;;6156568;23;20033;-85
2022/02/06 07:57:30;;;;;;;2.38;0.80;;;7.50;99.90;;;;;;6129611;23;20044;-85
2022/02/06 07:59:55;;;;;;;2.20;0.60;;;7.50;99.90;;;;;;6154428;23;20017;-84
2022/02/06 08:02:21;;;;;;;1.92;0.63;;;7.50;99.90;;;;;;6153553;23;20018;-86
2022/02/06 08:04:48;;;;;;;1.50;0.55;;;7.50;99.90;;;;;;6153621;23;20002;-83
2022/02/06 08:07:14;;;;;;;3.28;1.08;;;7.50;99.90;;;;;;6128886;23;20005;-85
2022/02/06 08:10:00;;;;;;;2.17;0.65;;;7.50;99.90;;;;;;6127492;23;20002;-84
2022/02/06 08:12:29;;;;;;;2.22;0.90;;;7.50;99.90;;;;;;6152771;23;20477;-84
2022/02/06 08:14:57;;;;;;;3.13;1.00;;;7.50;99.90;;;;;;6128177;23;20005;-84
2022/02/06 08:17:36;;;;;;;2.38;0.80;;;7.60;99.90;;;;;;6127040;23;20032;-82
2022/02/06 08:20:05;;;;;;;3.43;0.70;;;7.60;99.90;;;;;;6128105;23;20002;-83
2022/02/06 08:22:30;;;;;;;3.03;0.77;;;7.60;99.90;;;;;;6127399;23;20469;-85
2022/02/06 08:24:57;;;;;;;3.58;0.70;;;7.60;99.90;;;;;;6128181;23;20017;-83
2022/02/06 08:27:24;;;;;;;3.53;0.60;;;7.60;99.90;;;;;;6128336;23;20025;-85
2022/02/06 08:29:50;;;;;;;3.05;1.35;;;7.60;99.90;;;;;;6127770;23;20011;-83
2022/02/06 08:32:18;;;;;;;2.72;0.65;;;7.60;99.90;;;;;;6127424;23;20013;-83
2022/02/06 08:34:44;;;;;;;1.65;0.50;;;7.60;99.90;;;;;;6127049;23;20265;-86
2022/02/06 08:37:10;;;;;;;2.13;0.60;;;7.60;99.90;;;;;;6127730;23;20016;-84
2022/02/06 08:39:39;;;;;;;1.02;0.50;;;7.60;99.90;;;;;;6152231;23;20006;-84
2022/02/06 08:42:08;;;;;;;2.42;0.63;;;7.50;99.90;;;;;;6127540;23;20463;-82
2022/02/06 08:44:35;;;;;;;1.58;0.50;;;7.50;99.90;;;;;;6153789;23;20001;-83
2022/02/06 08:47:01;;;;;;;2.28;0.60;;;7.50;99.90;;;;;;6126837;23;20469;-86
2022/02/06 08:49:26;;;;;;;1.38;0.50;;;7.50;99.90;;;;;;6127794;23;20005;-83
2022/02/06 08:51:52;;;;;;;3.22;0.57;;;7.50;99.90;;;;;;6152238;23;20013;-87
2022/02/06 08:54:20;;;;;;;2.22;0.40;;;7.50;99.90;;;;;;6151719;23;20061;-84
2022/02/06 08:56:46;;;;;;;1.13;0.40;;;7.50;99.90;;;;;;6152047;23;20005;-84
2022/02/06 08:59:12;;;;;;;1.65;0.40;;;7.50;99.90;;;;;;6103359;23;20109;-87
2022/02/06 09:01:38;;;;;;;2.42;0.73;;;7.50;99.90;;;;;;6126980;23;20014;-86
2022/02/06 09:04:04;;;;;;;1.65;0.65;;;7.50;99.90;;;;;;6151657;23;20283;-83
2022/02/06 09:06:31;;;;;;;1.52;0.40;;;7.60;99.90;;;;;;6127485;23;20111;-85
2022/02/06 09:08:59;;;;;;;1.88;0.32;;;7.60;99.90;;;;;;6127520;23;20005;-83
2022/02/06 09:11:26;;;;;;;1.73;0.40;;;7.60;99.90;;;;;;6127430;23;20096;-85
2022/02/06 09:13:52;;;;;;;3.25;0.40;;;7.60;99.90;;;;;;6153271;23;20399;-83
2022/02/06 09:16:17;;;;;;;2.58;0.40;;;7.70;99.90;;;;;;6127195;23;20013;-84
2022/02/06 09:18:43;;;;;;;1.67;0.40;;;7.70;99.90;;;;;;6126927;23;20012;-84
2022/02/06 09:21:09;;;;;;;2.00;0.47;;;7.70;99.90;;;;;;6127138;23;20021;-83
2022/02/06 09:23:35;;;;;;;1.25;0.47;;;7.70;99.90;;;;;;6152480;23;20087;-84
2022/02/06 09:26:00;;;;;;;0.90;0.35;;;7.70;99.90;;;;;;6103076;23;20119;-83
2022/02/06 09:28:26;;;;;;;2.75;0.50;;;7.70;99.90;;;;;;6127670;23;20006;-84
2022/02/06 09:30:52;;;;;;;2.28;0.40;;;7.70;99.90;;;;;;6126643;23;20021;-83
2022/02/06 09:35:43;;;;;;;2.70;0.93;;;7.80;99.90;;;;;;6152868;23;20013;-83
2022/02/06 09:38:08;;;;;;;1.20;0.30;;;7.80;99.90;;;;;;6102363;23;20422;-83
2022/02/06 09:40:37;;;;;;;2.67;0.40;;;7.80;99.90;;;;;;6102352;23;20010;-82
2022/02/06 09:43:06;;;;;;;3.92;0.40;;;7.80;99.90;;;;;;6126935;23;20025;-84
2022/02/06 09:45:33;;;;;;;1.67;0.40;;;7.80;99.90;;;;;;6100829;23;20072;-83
2022/02/06 09:48:00;;;;;;;1.10;0.38;;;7.80;99.90;;;;;;6127418;23;20017;-83
2022/02/06 09:50:26;;;;;;;2.20;0.38;;;7.90;99.90;;;;;;6153634;23;20516;-83
2022/02/06 09:52:54;;;;;;;2.75;0.68;;;7.90;99.90;;;;;;6126786;23;20064;-83
2022/02/06 09:55:22;;;;;;;1.88;0.35;;;7.90;99.90;;;;;;6102336;23;20089;-87
2022/02/06 09:57:56;;;;;;;1.88;0.57;;;7.90;99.90;;;;;;6126751;23;20017;-86
2022/02/06 10:00:26;;;;;;;1.92;0.43;;;7.90;99.90;;;;;;6153268;23;20009;-85
2022/02/06 10:02:55;;;;;;;1.08;0.30;;;7.90;99.90;;;;;;6101845;23;20022;-83
2022/02/06 10:05:22;;;;;;;2.22;0.30;;;7.90;99.90;;;;;;6126991;23;20454;-85
2022/02/06 10:08:16;;;;;;;1.98;0.60;;;7.90;99.90;;;;;;6101751;23;20020;-83
2022/02/06 10:11:06;;;;;;;1.48;0.30;;;7.90;99.90;;;;;;6102127;23;20338;-84
2022/02/06 10:13:36;;;;;;;1.15;0.30;;;8.00;99.90;;;;;;6151997;23;20020;-84
2022/02/06 10:16:02;;;;;;;0.95;0.22;;;8.00;99.90;;;;;;6126722;23;20025;-83
2022/02/06 10:18:28;;;;;;;2.88;0.30;;;8.00;99.90;;;;;;6101948;23;20036;-84
2022/02/06 10:20:54;;;;;;;2.22;0.20;;;8.00;99.90;;;;;;6127088;23;20028;-86
2022/02/06 10:23:32;;;;;;;1.42;0.20;;;8.00;99.90;;;;;;6131418;23;20443;-86
2022/02/06 10:26:17;;;;;;;1.13;0.20;;;8.00;99.90;;;;;;6126881;23;20387;-84
2022/02/06 10:28:46;;;;;;;0.93;0.55;;;8.00;99.90;;;;;;6109389;23;20264;-85
2022/02/06 10:31:13;;;;;;;2.20;0.20;;;8.00;99.90;;;;;;6150809;23;20017;-84
2022/02/06 10:33:49;;;;;;;2.65;0.30;;;8.00;99.90;;;;;;6150508;23;20241;-87
2022/02/06 10:36:27;;;;;;;1.17;0.20;;;8.00;99.90;;;;;;6127426;23;20020;-83
2022/02/06 10:39:01;;;;;;;1.02;0.30;;;8.00;99.90;;;;;;6127184;23;20443;-86
2022/02/06 10:41:27;;;;;;;0.88;0.20;;;8.00;99.90;;;;;;6151146;23;20025;-84
2022/02/06 10:44:04;;;;;;;2.40;0.30;;;8.00;99.90;;;;;;6126897;23;20013;-88
2022/02/06 10:46:33;;;;;;;1.58;0.20;;;8.00;99.90;;;;;;6151796;23;20021;-85
2022/02/06 10:49:09;;;;;;;1.50;0.30;;;8.00;99.90;;;;;;6151319;23;20315;-86
2022/02/06 10:51:51;;;;;;;2.15;0.20;;;8.00;99.90;;;;;;6126611;23;20009;-84
2022/02/06 10:54:28;;;;;;;3.00;0.20;;;8.00;99.90;;;;;;6127030;23;20228;-84
2022/02/06 10:57:10;;;;;;;1.80;0.38;;;7.90;99.90;;;;;;6152912;23;20021;-86
2022/02/06 10:59:52;;;;;;;1.52;0.20;;;8.00;99.90;;;;;;6151276;23;20296;-88
2022/02/06 11:02:21;;;;;;;0.85;0.20;;;8.00;99.90;;;;;;6150592;23;20334;-86
2022/02/06 11:05:01;;;;;;;0.50;0.10;;;8.00;99.90;;;;;;6126952;23;20068;-88
2022/02/06 11:07:28;;;;;;;1.13;0.20;;;8.00;99.90;;;;;;6127079;23;20245;-84
2022/02/06 11:10:09;;;;;;;0.40;0.10;;;7.90;99.90;;;;;;6153783;23;20016;-86
2022/02/06 11:12:35;;;;;;;0.90;0.10;;;8.00;99.90;;;;;;6151388;23;20009;-87
2022/02/06 11:15:03;;;;;;;1.20;0.10;;;7.90;99.90;;;;;;6126574;23;20435;-83
2022/02/06 11:17:32;;;;;;;0.73;0.10;;;8.00;99.90;;;;;;6126170;23;20017;-85
2022/02/06 11:20:10;;;;;;;0.80;0.20;;;7.90;99.90;;;;;;6152836;23;20017;-84
2022/02/06 11:22:49;;;;;;;0.75;0.20;;;8.00;99.90;;;;;;6150450;23;20025;-86
2022/02/06 11:25:15;;;;;;;0.90;0.10;;;8.00;99.90;;;;;;6152024;23;20084;-86
2022/02/06 11:27:42;;;;;;;0.65;0.10;;;8.00;99.90;;;;;;6126954;23;20443;-86
2022/02/06 11:30:08;;;;;;;2.35;0.10;;;8.00;99.90;;;;;;6102121;23;20006;-86
2022/02/06 11:32:36;;;;;;;0.85;0.13;;;8.00;99.90;;;;;;6102010;23;20016;-83
2022/02/06 11:35:09;;;;;;;1.52;0.13;;;8.00;99.90;;;;;;6102048;23;20012;-86
2022/02/06 11:44:06;;;;;;;0.52;0.20;;;8.00;99.90;;;;;;6038172;23;20146;-86
2022/02/06 11:46:46;;;;;;;1.48;0.10;;;8.00;99.90;;;;;;6016552;23;20484;-88
2022/02/06 11:49:16;;;;;;;1.08;0.10;;;8.00;99.90;;;;;;6064757;23;20010;-88
2022/02/06 11:51:56;;;;;;;0.50;0.10;;;8.10;99.90;;;;;;6040173;23;20007;-88
2022/02/06 11:54:32;;;;;;;1.05;0.10;;;8.10;99.90;;;;;;6039674;23;20025;-88
2022/02/06 11:57:26;;;;;;;1.65;0.10;;;8.10;99.90;;;;;;6040435;23;20007;-83
2022/02/06 12:00:06;;;;;;;1.58;0.10;;;8.10;99.90;;;;;;6040202;23;20341;-86
2022/02/06 12:02:47;;;;;;;0.50;0.05;;;8.10;99.90;;;;;;6040867;23;20026;-88
2022/02/06 12:05:13;;;;;;;2.83;0.30;;;8.20;99.90;;;;;;5998169;23;20119;-85
2022/02/06 12:07:51;;;;;;;3.83;0.70;;;8.10;99.90;;;;;;6035301;23;20392;-89
2022/02/06 12:10:17;;;;;;;1.75;0.40;;;7.20;99.90;;;;;;6062878;23;20506;-87
2022/02/06 12:12:43;;;;;;;3.38;0.60;;;6.40;99.90;;;;;;6015435;23;20015;-87
2022/02/06 12:15:20;;;;;;;3.22;0.50;;;6.20;99.90;;;;;;6039372;23;20300;-88
2022/02/06 12:18:06;;;;;;;3.42;0.75;;;6.10;99.90;;;;;;6060760;23;20008;-88
2022/02/06 12:20:53;;;;;;;1.58;0.40;;;5.90;99.90;;;;;;6103200;23;20435;-90
2022/02/06 12:23:49;;;;;;;2.45;0.40;;;5.90;99.90;;;;;;6153193;23;20021;-88
2022/02/06 12:26:37;;;;;;;2.10;0.20;;;5.80;99.90;;;;;;6127676;23;20449;-89
2022/02/06 12:29:13;;;;;;;1.90;0.20;;;5.80;99.90;;;;;;6128083;23;20036;-84
2022/02/06 12:31:59;;;;;;;1.95;0.20;;;5.80;99.90;;;;;;6153178;23;20010;-90
2022/02/06 12:37:33;;;;;;;1.90;0.25;;;5.70;99.90;;;;;;6038324;23;20520;-86
2022/02/06 12:40:02;;;;;;;1.40;0.40;;;5.80;99.90;;;;;;6063166;23;20507;-86
2022/02/06 12:42:38;;;;;;;1.60;0.30;;;5.80;99.90;;;;;;6038886;23;20029;-87
2022/02/06 12:45:06;;;;;;;1.55;0.40;;;5.80;99.90;;;;;;6039291;23;20010;-87
2022/02/06 12:47:36;;;;;;;1.05;0.20;;;5.90;99.90;;;;;;6038691;23;20468;-87
2022/02/06 12:50:12;;;;;;;2.70;0.30;;;5.80;99.90;;;;;;6039335;23;20034;-88
2022/02/06 12:52:38;;;;;;;2.85;0.22;;;5.80;99.90;;;;;;6015081;23;20251;-87
2022/02/06 12:55:04;;;;;;;2.10;0.20;;;5.90;99.90;;;;;;6038979;23;20515;-89
2022/02/06 12:57:30;;;;;;;1.30;0.00;;;5.90;99.90;;;;;;6062641;23;20022;-88
2022/02/06 12:59:56;;;;;;;0.77;0.10;;;5.90;99.90;;;;;;6038515;23;20058;-90
2022/02/06 13:02:23;;;;;;;0.60;0.10;;;6.00;99.90;;;;;;6062804;23;20019;-86
2022/02/06 13:05:12;;;;;;;1.45;0.00;;;6.00;99.90;;;;;;6014917;23;20059;-90
2022/02/06 13:07:44;;;;;;;1.50;0.10;;;6.00;99.90;;;;;;6025530;23;20014;-89
2022/02/06 13:10:12;;;;;;;0.47;0.10;;;6.00;99.90;;;;;;6015658;23;20037;-90
2022/02/06 13:12:47;;;;;;;1.35;0.00;;;6.00;99.90;;;;;;6039283;23;20089;-92
2022/02/06 13:33:37;;;;;;;2.65;0.10;;;6.50;99.90;;;;;;6151683;23;20013;-89
2022/02/06 13:36:29;;;;;;;1.08;0.10;;;6.40;99.90;;;;;;6126826;23;20052;-88
2022/02/06 13:38:58;;;;;;;2.20;0.10;;;6.50;99.90;;;;;;6127954;23;20009;-89
2022/02/06 13:41:28;;;;;;;0.98;0.10;;;6.50;99.90;;;;;;6127170;23;20300;-89
2022/02/06 13:43:56;;;;;;;2.97;0.20;;;6.50;99.90;;;;;;6151988;23;20058;-87
2022/02/06 13:46:26;;;;;;;2.75;0.10;;;6.50;99.90;;;;;;6152445;23;20013;-87
2022/02/06 13:48:53;;;;;;;2.63;0.10;;;6.60;99.90;;;;;;6127845;23;20018;-88
2022/02/06 13:51:38;;;;;;;2.88;0.10;;;6.60;99.90;;;;;;6151913;23;20025;-88
2022/02/06 13:54:06;;;;;;;3.00;0.10;;;6.60;99.90;;;;;;6128230;23;20060;-88
2022/02/06 13:56:34;;;;;;;1.40;0.17;;;6.70;99.90;;;;;;6127980;23;20446;-89
2022/02/06 13:59:01;;;;;;;2.03;0.10;;;6.70;99.90;;;;;;6152664;23;20009;-88
2022/02/06 14:01:40;;;;;;;3.65;0.10;;;6.80;99.90;;;;;;6152268;23;20014;-86
2022/02/06 14:04:29;;;;;;;5.07;0.20;;;6.90;99.90;;;;;;6152284;23;20014;-87
2022/02/06 14:07:08;;;;;;;2.10;0.20;;;7.00;99.90;;;;;;6127910;23;20033;-86
2022/02/06 14:12:19;;;;;;;7.68;0.20;;;7.10;99.90;;;;;;6151931;23;20092;-85
2022/02/06 14:15:00;;;;;;;3.00;0.25;;;7.10;99.90;;;;;;6126940;23;20009;-87
2022/02/06 14:17:28;;;;;;;5.57;0.28;;;7.20;99.90;;;;;;6127265;23;20427;-85
2022/02/06 14:19:57;;;;;;;8.27;0.20;;;7.20;99.90;;;;;;6126920;23;20383;-86
2022/02/06 14:22:35;;;;;;;3.55;0.10;;;7.20;99.90;;;;;;6151752;23;20199;-86
2022/02/06 14:25:04;;;;;;;3.42;0.30;;;7.30;99.90;;;;;;6127130;23;20013;-87
2022/02/06 14:27:41;;;;;;;6.85;0.30;;;7.30;99.90;;;;;;6149036;23;20399;-87
2022/02/06 14:30:10;;;;;;;6.40;0.32;;;7.30;99.90;;;;;;6125602;23;20064;-85
2022/02/06 14:32:53;;;;;;;5.18;0.20;;;7.30;99.90;;;;;;6151792;23;20013;-87
2022/02/06 14:35:19;;;;;;;6.88;0.90;;;7.30;99.90;;;;;;6151751;23;20005;-87
2022/02/06 14:37:46;;;;;;;4.45;0.20;;;7.30;99.90;;;;;;6151236;23;20460;-87
2022/02/06 14:40:28;;;;;;;3.30;0.20;;;7.30;99.90;;;;;;6127823;23;20029;-87
2022/02/06 14:42:58;;;;;;;9.60;0.30;;;7.30;99.90;;;;;;6151765;23;20108;-86
2022/02/06 14:45:23;;;;;;;4.88;0.40;;;7.30;99.90;;;;;;6152033;23;20088;-88
2022/02/06 14:47:49;;;;;;;2.83;0.20;;;7.30;99.90;;;;;;6127181;23;20091;-83
2022/02/06 14:50:20;;;;;;;7.55;0.30;;;7.30;99.90;;;;;;6127364;23;20016;-87
2022/02/06 14:52:47;;;;;;;4.05;0.30;;;7.40;99.90;;;;;;6127296;23;20010;-87
2022/02/06 14:55:13;;;;;;;8.90;0.40;;;7.40;99.90;;;;;;6153737;23;20056;-85
2022/02/06 14:57:39;;;;;;;7.70;0.30;;;7.50;99.90;;;;;;6126742;23;20040;-87
2022/02/06 15:00:07;;;;;;;6.60;0.32;;;7.50;99.90;;;;;;6127557;23;20007;-82
2022/02/06 15:02:33;;;;;;;5.45;0.28;;;7.50;99.90;;;;;;6126657;23;20025;-83
2022/02/06 15:04:59;;;;;;;4.97;0.40;;;7.60;99.90;;;;;;6151525;23;20056;-87
2022/02/06 15:07:26;;;;;;;3.47;0.30;;;7.60;99.90;;;;;;6151681;23;20016;-86
2022/02/06 15:09:52;;;;;;;3.13;0.20;;;7.60;99.90;;;;;;6126608;23;20012;-85
2022/02/06 15:12:18;;;;;;;5.60;0.30;;;7.70;99.90;;;;;;6151544;23;20013;-85
2022/02/06 15:14:44;;;;;;;4.78;0.30;;;7.60;99.90;;;;;;6152873;23;20414;-85
2022/02/06 15:17:10;;;;;;;5.55;0.35;;;7.60;99.90;;;;;;6153304;23;20080;-85
2022/02/06 15:19:37;;;;;;;6.40;0.50;;;7.70;99.90;;;;;;6153116;23;20377;-86
2022/02/06 15:22:03;;;;;;;4.40;0.25;;;7.70;99.90;;;;;;6153564;23;20018;-85
2022/02/06 15:24:29;;;;;;;9.63;0.28;;;7.80;99.90;;;;;;6153128;23;20087;-86
2022/02/06 15:26:56;;;;;;;4.75;0.20;;;7.80;99.90;;;;;;6128737;23;20013;-86
2022/02/06 15:29:22;;;;;;;4.63;0.22;;;7.80;99.90;;;;;;6102127;23;20111;-87
2022/02/06 15:31:47;;;;;;;2.35;0.20;;;7.80;99.90;;;;;;6149877;23;20013;-85